Time;durP1;ratioP1;P1;durP2;ratioP2;P2;SDS_P1;SDS_P2;PMS_P1;PMS_P2;Temp;Humidity;BMP_temperature;BMP_pressure;BME280_temperature;BME280_humidity;BME280_pressure;Samples;Min_cycle;Max_cycle;Signal;HPM_P1;HPM_P2
2021/01/10 00:00:04;;;;;;;23.02;13.40;;;;;;;;;;6249326;28;20086;-68
2021/01/10 00:03:06;;;;;;;23.60;13.48;;;;;;;;;;6255691;28;20053;-68
2021/01/10 00:06:07;;;;;;;21.63;13.75;;;;;;;;;;6247082;28;20160;-71
2021/01/10 00:09:08;;;;;;;21.30;13.30;;;;;;;;;;6250553;28;20049;-69
2021/01/10 00:12:10;;;;;;;24.38;14.13;;;;;;;;;;6247793;28;20053;-68
2021/01/10 00:15:13;;;;;;;20.17;13.68;;;;;;;;;;6254520;28;20541;-69
2021/01/10 00:18:14;;;;;;;21.98;13.45;;;;;;;;;;6263343;28;20037;-68
2021/01/10 00:21:16;;;;;;;22.42;13.75;;;;;;;;;;6252854;28;20056;-69
2021/01/10 00:24:17;;;;;;;25.70;14.60;;;;;;;;;;6254003;28;20048;-71
2021/01/10 00:27:19;;;;;;;22.63;14.05;;;;;;;;;;6260025;28;20585;-70
2021/01/10 00:30:21;;;;;;;23.83;13.60;;;;;;;;;;6259187;28;20072;-69
2021/01/10 00:33:22;;;;;;;21.65;12.82;;;;;;;;;;6256292;28;20392;-71
2021/01/10 00:36:24;;;;;;;23.48;13.77;;;;;;;;;;6252084;28;20125;-68
2021/01/10 00:39:25;;;;;;;24.05;13.75;;;;;;;;;;6257208;28;20061;-70
2021/01/10 00:42:27;;;;;;;26.40;14.30;;;;;;;;;;6253933;28;20061;-69
2021/01/10 00:45:28;;;;;;;17.73;13.10;;;;;;;;;;6258102;28;20084;-69
2021/01/10 00:48:29;;;;;;;20.67;13.38;;;;;;;;;;6258298;28;20132;-70
2021/01/10 00:51:30;;;;;;;21.52;13.65;;;;;;;;;;6257639;28;20179;-68
2021/01/10 00:54:31;;;;;;;19.10;12.68;;;;;;;;;;6252883;28;20057;-68
2021/01/10 00:57:33;;;;;;;19.90;13.63;;;;;;;;;;6251386;28;20132;-70
2021/01/10 01:00:34;;;;;;;22.00;13.70;;;;;;;;;;6266640;28;20093;-67
2021/01/10 01:03:35;;;;;;;19.55;13.05;;;;;;;;;;6253865;28;20066;-69
2021/01/10 01:06:36;;;;;;;21.27;12.80;;;;;;;;;;6261687;28;20044;-71
2021/01/10 01:09:38;;;;;;;20.30;12.93;;;;;;;;;;6257132;28;20049;-68
2021/01/10 01:12:40;;;;;;;21.20;13.05;;;;;;;;;;6262682;28;20048;-69
2021/01/10 01:15:41;;;;;;;26.63;13.73;;;;;;;;;;6259172;28;20050;-69
2021/01/10 01:18:42;;;;;;;20.00;13.32;;;;;;;;;;6253748;28;20052;-69
2021/01/10 01:21:43;;;;;;;19.30;12.93;;;;;;;;;;6251743;28;20630;-69
2021/01/10 01:24:44;;;;;;;21.23;14.02;;;;;;;;;;6256637;28;20037;-66
2021/01/10 01:27:46;;;;;;;20.13;12.88;;;;;;;;;;6254519;28;20090;-69
2021/01/10 01:30:47;;;;;;;20.45;13.23;;;;;;;;;;6264074;28;20082;-69
2021/01/10 01:33:48;;;;;;;20.75;12.52;;;;;;;;;;6266571;28;20136;-67
2021/01/10 01:36:49;;;;;;;19.15;12.43;;;;;;;;;;6266615;28;20076;-69
2021/01/10 01:39:50;;;;;;;17.35;11.93;;;;;;;;;;6258438;28;20049;-69
2021/01/10 01:42:52;;;;;;;21.00;11.50;;;;;;;;;;6261396;28;20043;-69
2021/01/10 01:45:53;;;;;;;17.85;11.82;;;;;;;;;;6259689;28;20038;-68
2021/01/10 01:48:55;;;;;;;16.98;11.13;;;;;;;;;;6262394;28;20160;-68
2021/01/10 01:51:56;;;;;;;18.35;11.07;;;;;;;;;;6262922;28;20055;-69
2021/01/10 01:54:57;;;;;;;16.83;11.40;;;;;;;;;;6262951;28;20076;-68
2021/01/10 01:57:59;;;;;;;16.88;11.88;;;;;;;;;;6261200;28;20048;-68
2021/01/10 02:01:01;;;;;;;19.10;11.88;;;;;;;;;;6260857;28;20082;-69
2021/01/10 02:04:08;;;;;;;16.05;10.45;;;;;;;;;;6261154;28;20064;-69
2021/01/10 02:07:14;;;;;;;18.27;10.73;;;;;;;;;;6260397;28;20045;-69
2021/01/10 02:10:15;;;;;;;18.45;10.57;;;;;;;;;;6261543;28;20041;-68
2021/01/10 02:13:17;;;;;;;16.92;11.20;;;;;;;;;;6257139;28;20084;-68
2021/01/10 02:16:18;;;;;;;16.23;11.32;;;;;;;;;;6258246;28;20494;-68
2021/01/10 02:19:22;;;;;;;19.95;11.60;;;;;;;;;;6254423;28;20045;-68
2021/01/10 02:22:25;;;;;;;;;;;;;;;;;;6247169;28;20491;-68
2021/01/10 02:25:27;;;;;;;16.10;10.32;;;;;;;;;;6258887;28;20808;-68
2021/01/10 02:28:30;;;;;;;16.08;10.18;;;;;;;;;;6255618;28;20090;-68
2021/01/10 02:31:32;;;;;;;16.05;11.32;;;;;;;;;;6256285;28;20044;-68
2021/01/10 02:34:34;;;;;;;17.50;11.60;;;;;;;;;;6252941;28;20055;-67
2021/01/10 02:37:45;;;;;;;16.33;10.55;;;;;;;;;;6250537;28;20082;-69
2021/01/10 02:40:54;;;;;;;17.90;10.80;;;;;;;;;;6252220;28;20136;-71
2021/01/10 02:44:02;;;;;;;18.73;11.15;;;;;;;;;;6248862;28;20136;-67
2021/01/10 02:47:03;;;;;;;20.52;11.68;;;;;;;;;;6252261;28;20122;-71
2021/01/10 02:50:05;;;;;;;20.50;11.98;;;;;;;;;;6251417;28;20052;-69
2021/01/10 02:53:06;;;;;;;20.25;11.02;;;;;;;;;;6253462;28;20051;-68
2021/01/10 02:56:08;;;;;;;18.77;11.57;;;;;;;;;;6254124;28;20059;-70
2021/01/10 02:59:10;;;;;;;18.60;11.18;;;;;;;;;;6255818;28;20140;-69
2021/01/10 03:02:12;;;;;;;15.38;10.80;;;;;;;;;;6242997;28;20120;-68
2021/01/10 03:05:14;;;;;;;16.92;10.27;;;;;;;;;;6259525;28;20408;-66
2021/01/10 03:08:16;;;;;;;15.90;9.98;;;;;;;;;;6260744;28;20045;-69
2021/01/10 03:11:18;;;;;;;21.58;10.90;;;;;;;;;;6254815;28;20041;-70
2021/01/10 03:14:19;;;;;;;15.65;9.20;;;;;;;;;;6249350;28;20053;-69
2021/01/10 03:17:34;;;;;;;15.07;10.25;;;;;;;;;;6245732;28;20117;-70
2021/01/10 03:20:35;;;;;;;17.08;9.65;;;;;;;;;;6245995;28;20045;-69
2021/01/10 03:23:36;;;;;;;16.15;9.02;;;;;;;;;;6249061;28;20113;-69
2021/01/10 03:26:38;;;;;;;14.55;9.32;;;;;;;;;;6250697;28;20080;-69
2021/01/10 03:29:39;;;;;;;16.17;9.77;;;;;;;;;;6259289;28;20069;-70
2021/01/10 03:32:40;;;;;;;16.17;9.55;;;;;;;;;;6251390;28;20064;-67
2021/01/10 03:35:41;;;;;;;14.82;9.00;;;;;;;;;;6248853;28;20054;-72
2021/01/10 03:38:42;;;;;;;14.27;8.98;;;;;;;;;;6254560;28;20052;-69
2021/01/10 03:41:44;;;;;;;14.70;8.57;;;;;;;;;;6257628;28;20576;-69
2021/01/10 03:44:45;;;;;;;13.82;8.98;;;;;;;;;;6247150;28;20453;-69
2021/01/10 03:47:46;;;;;;;12.52;8.43;;;;;;;;;;6254166;28;20053;-69
2021/01/10 03:50:47;;;;;;;13.23;8.32;;;;;;;;;;6259017;28;20050;-69
2021/01/10 03:53:48;;;;;;;13.75;8.52;;;;;;;;;;6258630;28;20087;-69
2021/01/10 03:56:50;;;;;;;14.88;8.65;;;;;;;;;;6259066;28;20450;-69
2021/01/10 03:59:51;;;;;;;12.10;7.85;;;;;;;;;;6260191;28;20045;-67
2021/01/10 04:02:52;;;;;;;12.40;7.70;;;;;;;;;;6264685;28;20044;-69
2021/01/10 04:05:54;;;;;;;14.40;8.13;;;;;;;;;;6266141;28;20045;-67
2021/01/10 04:08:55;;;;;;;12.73;8.00;;;;;;;;;;6267223;28;20115;-68
2021/01/10 04:11:57;;;;;;;11.88;7.72;;;;;;;;;;6264792;28;20044;-68
2021/01/10 04:14:58;;;;;;;13.70;7.47;;;;;;;;;;6263066;28;20056;-71
2021/01/10 04:17:59;;;;;;;11.32;7.25;;;;;;;;;;6261555;28;20128;-68
2021/01/10 04:21:02;;;;;;;11.88;7.60;;;;;;;;;;6265415;28;20136;-68
2021/01/10 04:24:04;;;;;;;13.27;7.60;;;;;;;;;;6258857;28;20048;-68
2021/01/10 04:27:06;;;;;;;12.30;7.53;;;;;;;;;;6265077;28;20805;-68
2021/01/10 04:30:08;;;;;;;12.80;7.97;;;;;;;;;;6265273;28;20128;-67
2021/01/10 04:33:10;;;;;;;11.90;6.93;;;;;;;;;;6264200;28;20595;-68
2021/01/10 04:36:11;;;;;;;11.70;7.00;;;;;;;;;;6267209;28;20073;-69
2021/01/10 04:39:12;;;;;;;11.95;6.72;;;;;;;;;;6263071;28;20175;-68
2021/01/10 04:42:14;;;;;;;12.57;6.43;;;;;;;;;;6262473;28;20173;-68
2021/01/10 04:45:16;;;;;;;11.88;6.45;;;;;;;;;;6259520;28;20061;-73
2021/01/10 04:48:17;;;;;;;9.63;6.45;;;;;;;;;;6259222;28;20041;-72
2021/01/10 04:51:19;;;;;;;12.02;7.05;;;;;;;;;;6257705;28;20175;-69
2021/01/10 04:54:21;;;;;;;10.68;6.40;;;;;;;;;;6267815;28;20045;-68
2021/01/10 04:57:24;;;;;;;11.48;6.00;;;;;;;;;;6261956;28;20118;-70
2021/01/10 05:00:26;;;;;;;10.50;6.00;;;;;;;;;;6261748;28;20442;-66
2021/01/10 05:03:29;;;;;;;9.75;6.35;;;;;;;;;;6261616;28;20061;-68
2021/01/10 05:06:33;;;;;;;10.18;6.55;;;;;;;;;;6261204;28;20083;-68
2021/01/10 05:09:37;;;;;;;11.00;6.20;;;;;;;;;;6257984;28;20057;-69
2021/01/10 05:12:39;;;;;;;11.35;6.28;;;;;;;;;;6265507;28;20056;-73
2021/01/10 05:15:40;;;;;;;10.00;5.95;;;;;;;;;;6258468;28;20613;-68
2021/01/10 05:18:49;;;;;;;9.35;6.28;;;;;;;;;;6259220;28;20484;-67
2021/01/10 05:21:50;;;;;;;10.02;5.97;;;;;;;;;;6260496;28;20049;-69
2021/01/10 05:24:51;;;;;;;9.90;5.68;;;;;;;;;;6266983;28;20067;-68
2021/01/10 05:27:54;;;;;;;8.93;6.10;;;;;;;;;;6260514;28;20123;-69
2021/01/10 05:30:55;;;;;;;11.80;5.97;;;;;;;;;;6261399;28;20044;-69
2021/01/10 05:33:56;;;;;;;10.32;5.63;;;;;;;;;;6263541;28;20048;-70
2021/01/10 05:37:11;;;;;;;10.52;6.53;;;;;;;;;;6257997;28;20417;-69
2021/01/10 05:40:20;;;;;;;8.43;5.57;;;;;;;;;;6251674;28;20490;-70
2021/01/10 05:43:22;;;;;;;10.68;5.53;;;;;;;;;;6257919;28;20044;-68
2021/01/10 05:46:23;;;;;;;10.93;5.78;;;;;;;;;;6259590;28;20064;-69
2021/01/10 05:49:24;;;;;;;10.68;5.88;;;;;;;;;;6258570;28;20053;-70
2021/01/10 05:52:25;;;;;;;10.00;5.85;;;;;;;;;;6261134;28;20164;-70
2021/01/10 05:55:26;;;;;;;11.30;5.93;;;;;;;;;;6262988;28;20045;-69
2021/01/10 05:58:30;;;;;;;10.23;5.93;;;;;;;;;;6261602;28;20517;-70
2021/01/10 06:01:32;;;;;;;9.63;5.77;;;;;;;;;;6257421;28;20045;-72
2021/01/10 06:04:33;;;;;;;10.10;6.03;;;;;;;;;;6264142;28;20471;-69
2021/01/10 06:07:34;;;;;;;11.32;6.40;;;;;;;;;;6259701;28;20131;-69
2021/01/10 06:10:35;;;;;;;11.32;6.90;;;;;;;;;;6254267;28;20082;-70
2021/01/10 06:13:45;;;;;;;12.57;7.57;;;;;;;;;;6250839;28;20449;-67
2021/01/10 06:16:52;;;;;;;10.57;6.50;;;;;;;;;;6256985;28;20094;-69
2021/01/10 06:19:53;;;;;;;11.82;6.82;;;;;;;;;;6257983;28;20056;-70
2021/01/10 06:22:56;;;;;;;11.23;7.07;;;;;;;;;;6259374;28;20488;-71
2021/01/10 06:25:58;;;;;;;9.95;6.63;;;;;;;;;;6258475;28;20083;-68
2021/01/10 06:29:01;;;;;;;8.75;6.32;;;;;;;;;;6259559;28;20163;-68
2021/01/10 06:32:09;;;;;;;12.83;6.97;;;;;;;;;;6263568;28;20124;-68
2021/01/10 06:35:10;;;;;;;10.40;6.93;;;;;;;;;;6266005;28;20118;-67
2021/01/10 06:38:12;;;;;;;15.77;7.88;;;;;;;;;;6256673;28;20051;-68
2021/01/10 06:41:28;;;;;;;12.38;7.10;;;;;;;;;;6257184;28;20049;-68
2021/01/10 06:44:33;;;;;;;11.77;7.00;;;;;;;;;;6259894;28;20072;-68
2021/01/10 06:47:34;;;;;;;10.70;6.75;;;;;;;;;;6258170;28;20760;-68
2021/01/10 06:50:36;;;;;;;11.55;7.60;;;;;;;;;;6258696;28;20060;-70
2021/01/10 06:53:39;;;;;;;12.38;7.45;;;;;;;;;;6259181;28;20044;-70
2021/01/10 06:56:47;;;;;;;11.55;7.60;;;;;;;;;;6258156;28;20051;-67
2021/01/10 06:59:59;;;;;;;11.25;7.15;;;;;;;;;;6255360;28;20059;-69
2021/01/10 07:03:08;;;;;;;11.63;6.45;;;;;;;;;;6261080;28;20060;-68
2021/01/10 07:06:10;;;;;;;14.57;7.90;;;;;;;;;;6262144;28;20483;-69
2021/01/10 07:09:11;;;;;;;12.55;6.97;;;;;;;;;;6251933;28;20738;-71
2021/01/10 07:12:20;;;;;;;14.07;7.82;;;;;;;;;;6250689;28;20053;-69
2021/01/10 07:15:28;;;;;;;15.95;7.35;;;;;;;;;;6247067;28;20192;-69
2021/01/10 07:18:30;;;;;;;11.20;7.57;;;;;;;;;;6252152;28;20040;-69
2021/01/10 07:21:32;;;;;;;13.05;7.65;;;;;;;;;;6254815;28;20045;-69
2021/01/10 07:24:33;;;;;;;16.15;7.53;;;;;;;;;;6255204;28;20065;-69
2021/01/10 07:27:35;;;;;;;13.40;7.93;;;;;;;;;;6253459;28;20048;-68
2021/01/10 07:30:39;;;;;;;11.32;7.47;;;;;;;;;;6259480;28;20048;-69
2021/01/10 07:33:40;;;;;;;17.48;7.95;;;;;;;;;;6226433;28;20141;-70
2021/01/10 07:36:47;;;;;;;12.30;7.53;;;;;;;;;;6263317;28;20042;-70
2021/01/10 07:39:49;;;;;;;12.38;7.22;;;;;;;;;;6258087;28;20055;-68
2021/01/10 07:43:00;;;;;;;14.85;7.50;;;;;;;;;;6258469;28;20874;-69
2021/01/10 07:46:02;;;;;;;11.93;6.82;;;;;;;;;;6253199;28;20057;-68
2021/01/10 07:49:07;;;;;;;12.32;7.45;;;;;;;;;;6258046;28;20132;-67
2021/01/10 07:52:08;;;;;;;13.85;6.90;;;;;;;;;;6260032;28;20068;-70
2021/01/10 07:55:21;;;;;;;11.13;6.72;;;;;;;;;;6263167;28;20045;-67
2021/01/10 07:58:22;;;;;;;12.25;6.15;;;;;;;;;;6246197;28;20120;-70
2021/01/10 08:01:47;;;;;;;10.52;6.20;;;;;;;;;;6246519;28;20723;-69
2021/01/10 08:04:50;;;;;;;12.18;6.28;;;;;;;;;;6253929;28;20057;-70
2021/01/10 08:07:53;;;;;;;11.90;6.47;;;;;;;;;;6256066;28;20080;-67
2021/01/10 08:10:55;;;;;;;10.03;5.93;;;;;;;;;;5560932;28;9999925;-67
2021/01/10 08:13:56;;;;;;;9.80;5.47;;;;;;;;;;6256874;28;20380;-68
2021/01/10 08:16:58;;;;;;;10.95;6.28;;;;;;;;;;6255985;28;20041;-70
2021/01/10 08:20:00;;;;;;;8.45;5.50;;;;;;;;;;6254695;28;20563;-69
2021/01/10 08:23:01;;;;;;;10.85;6.38;;;;;;;;;;6255820;28;20049;-69
2021/01/10 08:26:10;;;;;;;10.73;5.80;;;;;;;;;;6254106;28;20045;-70
2021/01/10 08:29:12;;;;;;;9.35;6.05;;;;;;;;;;6252404;28;20141;-66
2021/01/10 08:32:15;;;;;;;9.73;5.80;;;;;;;;;;6258648;28;20037;-70
2021/01/10 08:35:21;;;;;;;8.40;5.65;;;;;;;;;;6255180;28;20408;-69
2021/01/10 08:41:33;;;;;;;8.82;5.68;;;;;;;;;;6493494;23;20080;-70
2021/01/10 08:44:34;;;;;;;12.45;6.10;;;;;;;;;;6208429;28;20132;-70
2021/01/10 08:47:37;;;;;;;9.63;5.72;;;;;;;;;;6211483;28;20129;-70
2021/01/10 08:50:39;;;;;;;10.43;6.03;;;;;;;;;;6204604;28;20188;-71
2021/01/10 08:53:41;;;;;;;9.07;5.78;;;;;;;;;;6211560;28;20050;-72
2021/01/10 08:56:43;;;;;;;10.07;6.22;;;;;;;;;;6212990;28;20063;-69
2021/01/10 08:59:45;;;;;;;13.07;6.00;;;;;;;;;;6212599;28;20052;-72
2021/01/10 09:02:47;;;;;;;12.43;6.13;;;;;;;;;;6214358;28;20491;-70
2021/01/10 09:05:49;;;;;;;8.88;5.82;;;;;;;;;;6206268;28;20152;-71
2021/01/10 09:08:55;;;;;;;11.45;6.20;;;;;;;;;;6212271;28;20069;-70
2021/01/10 09:12:10;;;;;;;10.27;5.10;;;;;;;;;;6209731;28;20153;-69
2021/01/10 09:15:15;;;;;;;9.52;6.05;;;;;;;;;;6213514;28;20046;-69
2021/01/10 09:18:20;;;;;;;9.45;6.25;;;;;;;;;;6212844;28;20133;-69
2021/01/10 09:21:26;;;;;;;14.73;6.95;;;;;;;;;;6212182;28;20041;-69
2021/01/10 09:24:31;;;;;;;12.65;5.90;;;;;;;;;;6203491;28;20052;-69
2021/01/10 09:27:32;;;;;;;9.95;5.60;;;;;;;;;;6221531;28;20407;-71
2021/01/10 09:30:33;;;;;;;9.77;6.43;;;;;;;;;;6218645;28;20042;-72
2021/01/10 09:33:35;;;;;;;8.90;6.05;;;;;;;;;;6215753;28;20052;-70
2021/01/10 09:36:37;;;;;;;14.63;7.80;;;;;;;;;;6213729;28;20052;-70
2021/01/10 09:39:42;;;;;;;10.82;6.18;;;;;;;;;;6207736;28;20116;-70
2021/01/10 09:42:45;;;;;;;10.30;6.30;;;;;;;;;;5869209;28;10000317;-69
2021/01/10 09:45:46;;;;;;;9.75;5.85;;;;;;;;;;6204189;28;20052;-70
2021/01/10 09:48:50;;;;;;;9.45;6.65;;;;;;;;;;6206852;28;20616;-68
2021/01/10 09:51:54;;;;;;;10.98;7.28;;;;;;;;;;6211357;28;20052;-70
2021/01/10 09:54:58;;;;;;;16.92;7.25;;;;;;;;;;6202953;28;20041;-70
2021/01/10 09:57:59;;;;;;;13.10;7.03;;;;;;;;;;6209723;28;20050;-68
2021/01/10 10:01:00;;;;;;;9.45;6.30;;;;;;;;;;6211551;28;20064;-70
2021/01/10 10:04:02;;;;;;;12.80;7.20;;;;;;;;;;6203986;28;20049;-72
2021/01/10 10:07:04;;;;;;;11.48;6.38;;;;;;;;;;6199838;28;20507;-67
2021/01/10 10:10:06;;;;;;;11.55;6.78;;;;;;;;;;6206199;28;20049;-71
2021/01/10 10:13:09;;;;;;;10.00;6.65;;;;;;;;;;6208986;28;20100;-70
2021/01/10 10:16:16;;;;;;;12.13;7.20;;;;;;;;;;6209143;28;20097;-69
2021/01/10 10:19:24;;;;;;;11.07;6.55;;;;;;;;;;6209673;28;20042;-68
2021/01/10 10:22:30;;;;;;;13.68;7.20;;;;;;;;;;6197347;28;20049;-70
2021/01/10 10:25:31;;;;;;;14.80;6.97;;;;;;;;;;6204387;28;20052;-69
2021/01/10 10:28:32;;;;;;;8.80;6.57;;;;;;;;;;6205329;28;20607;-67
2021/01/10 10:31:33;;;;;;;11.43;7.45;;;;;;;;;;6200232;28;20042;-67
2021/01/10 10:34:35;;;;;;;12.07;6.47;;;;;;;;;;6205029;28;20058;-70
2021/01/10 10:37:36;;;;;;;9.73;6.93;;;;;;;;;;6204224;28;20054;-73
2021/01/10 10:40:37;;;;;;;12.93;7.10;;;;;;;;;;6202479;28;20432;-70
2021/01/10 10:43:38;;;;;;;10.20;7.22;;;;;;;;;;6200009;28;20050;-70
2021/01/10 10:46:41;;;;;;;9.85;6.22;;;;;;;;;;6200446;28;20099;-73
2021/01/10 10:49:44;;;;;;;13.07;7.43;;;;;;;;;;6203809;28;20042;-71
2021/01/10 10:52:45;;;;;;;10.18;7.18;;;;;;;;;;6204527;28;20721;-72
2021/01/10 10:55:46;;;;;;;13.70;7.15;;;;;;;;;;6200977;28;20042;-72
2021/01/10 10:58:47;;;;;;;10.27;7.05;;;;;;;;;;6201858;28;20152;-70
2021/01/10 11:01:49;;;;;;;10.63;7.43;;;;;;;;;;6203461;28;20046;-70
2021/01/10 11:04:51;;;;;;;13.30;7.65;;;;;;;;;;6204159;28;20061;-71
2021/01/10 11:07:52;;;;;;;11.00;6.97;;;;;;;;;;6204157;28;20050;-69
2021/01/10 11:10:53;;;;;;;11.23;7.47;;;;;;;;;;6205105;28;20050;-68
2021/01/10 11:13:54;;;;;;;11.90;8.00;;;;;;;;;;6199890;28;20510;-69
2021/01/10 11:16:55;;;;;;;10.77;6.93;;;;;;;;;;6204699;28;20043;-68
2021/01/10 11:19:57;;;;;;;10.52;7.55;;;;;;;;;;6198278;28;20050;-70
2021/01/10 11:22:58;;;;;;;11.35;7.30;;;;;;;;;;6198842;28;20056;-70
2021/01/10 11:26:04;;;;;;;11.77;6.80;;;;;;;;;;6175237;28;20095;-70
2021/01/10 11:29:06;;;;;;;11.38;7.70;;;;;;;;;;6204433;28;20050;-68
2021/01/10 11:32:07;;;;;;;12.57;8.18;;;;;;;;;;6204021;28;20136;-71
2021/01/10 11:35:09;;;;;;;14.63;8.10;;;;;;;;;;6205027;28;20061;-72
2021/01/10 11:38:10;;;;;;;12.27;8.25;;;;;;;;;;6176022;28;20404;-68
2021/01/10 11:41:12;;;;;;;10.88;7.50;;;;;;;;;;6203772;28;20057;-71
2021/01/10 11:44:14;;;;;;;13.40;7.60;;;;;;;;;;6204308;28;20168;-73
2021/01/10 11:47:15;;;;;;;10.13;7.88;;;;;;;;;;6198372;28;20080;-68
2021/01/10 11:50:17;;;;;;;11.25;7.88;;;;;;;;;;6199412;28;20449;-68
2021/01/10 11:53:18;;;;;;;10.77;7.28;;;;;;;;;;6200944;28;20069;-74
2021/01/10 11:56:19;;;;;;;9.68;6.60;;;;;;;;;;6197377;28;20125;-70
2021/01/10 11:59:20;;;;;;;12.55;7.38;;;;;;;;;;6203990;28;20058;-71
2021/01/10 12:02:21;;;;;;;10.38;7.15;;;;;;;;;;6202495;28;20084;-70
2021/01/10 12:05:23;;;;;;;10.48;6.97;;;;;;;;;;6211393;28;20061;-71
2021/01/10 12:08:24;;;;;;;9.73;7.45;;;;;;;;;;6206466;28;20128;-70
2021/01/10 12:11:26;;;;;;;12.65;7.03;;;;;;;;;;6206281;28;20144;-70
2021/01/10 12:14:29;;;;;;;8.32;6.63;;;;;;;;;;6208405;28;20392;-71
2021/01/10 12:17:30;;;;;;;11.45;7.13;;;;;;;;;;6209290;28;20057;-72
2021/01/10 12:20:32;;;;;;;12.73;7.75;;;;;;;;;;6206200;28;20097;-69
2021/01/10 12:23:34;;;;;;;10.50;7.35;;;;;;;;;;6210203;28;20613;-70
2021/01/10 12:26:35;;;;;;;11.70;7.82;;;;;;;;;;6207828;28;20136;-69
2021/01/10 12:29:36;;;;;;;16.13;9.55;;;;;;;;;;6200858;28;20049;-71
2021/01/10 12:32:38;;;;;;;13.15;8.50;;;;;;;;;;6204172;28;20481;-71
2021/01/10 12:35:40;;;;;;;10.70;8.02;;;;;;;;;;6207090;28;20659;-70
2021/01/10 12:38:41;;;;;;;13.23;9.40;;;;;;;;;;6206623;28;20137;-71
2021/01/10 12:41:42;;;;;;;13.35;8.73;;;;;;;;;;6213443;28;20708;-70
2021/01/10 12:44:43;;;;;;;13.25;8.18;;;;;;;;;;6211051;28;20052;-69
2021/01/10 12:47:45;;;;;;;14.00;8.18;;;;;;;;;;6208394;28;20096;-73
2021/01/10 12:50:47;;;;;;;12.77;8.32;;;;;;;;;;6206056;28;20050;-68
2021/01/10 12:53:48;;;;;;;10.52;8.20;;;;;;;;;;6207099;28;20137;-69
2021/01/10 12:56:49;;;;;;;12.10;7.95;;;;;;;;;;6215154;28;20145;-69
2021/01/10 12:59:51;;;;;;;11.70;6.65;;;;;;;;;;6211739;28;20061;-68
2021/01/10 13:02:52;;;;;;;12.02;7.95;;;;;;;;;;6211406;28;20042;-69
2021/01/10 13:05:53;;;;;;;12.32;7.75;;;;;;;;;;6207082;28;20408;-70
2021/01/10 13:08:54;;;;;;;11.95;8.10;;;;;;;;;;6205879;28;20049;-68
2021/01/10 13:11:58;;;;;;;17.35;7.65;;;;;;;;;;6214313;28;20054;-68
2021/01/10 13:15:00;;;;;;;13.30;7.75;;;;;;;;;;6207386;28;20048;-70
2021/01/10 13:18:01;;;;;;;10.60;7.30;;;;;;;;;;6206517;28;20136;-70
2021/01/10 13:21:06;;;;;;;11.65;7.65;;;;;;;;;;6205910;28;20112;-70
2021/01/10 13:24:08;;;;;;;12.75;8.35;;;;;;;;;;6207903;28;20071;-69
2021/01/10 13:27:09;;;;;;;13.00;8.30;;;;;;;;;;6203413;28;20144;-70
2021/01/10 13:30:11;;;;;;;13.10;9.18;;;;;;;;;;6204833;28;20100;-70
2021/01/10 13:33:12;;;;;;;12.77;7.57;;;;;;;;;;6207604;28;20050;-70
2021/01/10 13:36:20;;;;;;;13.13;7.43;;;;;;;;;;6206120;28;20046;-69
2021/01/10 13:39:21;;;;;;;12.32;7.43;;;;;;;;;;5515605;28;10022651;-70
2021/01/10 13:42:22;;;;;;;11.10;6.70;;;;;;;;;;6204640;28;20049;-69
2021/01/10 13:45:24;;;;;;;11.85;6.95;;;;;;;;;;6210451;28;20157;-70
2021/01/10 13:48:25;;;;;;;9.60;6.72;;;;;;;;;;6207007;28;20114;-70
2021/01/10 13:51:28;;;;;;;12.85;6.50;;;;;;;;;;6207714;28;20041;-69
2021/01/10 13:54:29;;;;;;;9.13;6.20;;;;;;;;;;6203587;28;20140;-71
2021/01/10 13:57:30;;;;;;;9.65;6.45;;;;;;;;;;6206183;28;20141;-70
2021/01/10 14:00:31;;;;;;;9.30;6.20;;;;;;;;;;6206387;28;20132;-69
2021/01/10 14:03:32;;;;;;;8.15;5.93;;;;;;;;;;6206537;28;20656;-69
2021/01/10 14:06:34;;;;;;;7.70;5.40;;;;;;;;;;6203615;28;20050;-70
2021/01/10 14:09:35;;;;;;;8.85;5.35;;;;;;;;;;6202450;28;20738;-70
2021/01/10 14:12:36;;;;;;;8.23;5.63;;;;;;;;;;6208132;28;20548;-71
2021/01/10 14:15:37;;;;;;;9.73;5.30;;;;;;;;;;6201339;28;20050;-69
2021/01/10 14:18:38;;;;;;;7.35;5.43;;;;;;;;;;6203501;28;20054;-69
2021/01/10 14:21:40;;;;;;;8.98;5.75;;;;;;;;;;6210783;28;20049;-69
2021/01/10 14:24:41;;;;;;;7.75;5.75;;;;;;;;;;6199199;28;20137;-70
2021/01/10 14:27:42;;;;;;;8.23;5.10;;;;;;;;;;6205973;28;20091;-69
2021/01/10 14:30:43;;;;;;;10.68;7.18;;;;;;;;;;6201851;28;20161;-69
2021/01/10 14:33:44;;;;;;;9.90;5.35;;;;;;;;;;6197199;28;20437;-69
2021/01/10 14:36:47;;;;;;;12.90;6.32;;;;;;;;;;6204257;28;20064;-70
2021/01/10 14:39:49;;;;;;;9.43;6.15;;;;;;;;;;6201895;28;20068;-69
2021/01/10 14:42:50;;;;;;;10.02;6.15;;;;;;;;;;6204989;28;20089;-69
2021/01/10 14:45:51;;;;;;;8.05;6.15;;;;;;;;;;5857753;28;10000383;-69
2021/01/10 14:48:52;;;;;;;10.18;6.78;;;;;;;;;;6205519;28;20078;-69
2021/01/10 14:51:54;;;;;;;9.05;6.18;;;;;;;;;;6199534;28;20042;-69
2021/01/10 14:54:56;;;;;;;8.63;6.30;;;;;;;;;;6204474;28;20037;-69
2021/01/10 14:57:57;;;;;;;9.88;6.60;;;;;;;;;;6204191;28;20500;-70
2021/01/10 15:00:58;;;;;;;10.05;6.90;;;;;;;;;;6201746;28;20081;-69
2021/01/10 15:03:59;;;;;;;10.05;7.13;;;;;;;;;;6205081;28;20038;-69
2021/01/10 15:07:01;;;;;;;10.07;7.22;;;;;;;;;;6201331;28;20072;-69
2021/01/10 15:10:03;;;;;;;10.77;6.88;;;;;;;;;;6196448;28;20046;-70
2021/01/10 15:13:04;;;;;;;13.93;7.20;;;;;;;;;;6200839;28;20060;-70
2021/01/10 15:16:06;;;;;;;11.43;6.40;;;;;;;;;;6200285;28;20080;-70
2021/01/10 15:19:07;;;;;;;8.68;6.35;;;;;;;;;;6204955;28;20056;-70
2021/01/10 15:22:09;;;;;;;9.57;6.22;;;;;;;;;;6204372;28;20053;-69
2021/01/10 15:25:11;;;;;;;8.77;6.40;;;;;;;;;;6205399;28;20096;-69
2021/01/10 15:28:12;;;;;;;8.88;6.30;;;;;;;;;;6198384;28;20047;-69
2021/01/10 15:31:13;;;;;;;12.93;7.18;;;;;;;;;;6203615;28;20521;-70
2021/01/10 15:34:14;;;;;;;11.75;7.53;;;;;;;;;;6207051;28;20481;-69
2021/01/10 15:37:16;;;;;;;10.60;7.07;;;;;;;;;;6204920;28;20141;-69
2021/01/10 15:40:17;;;;;;;8.88;5.40;;;;;;;;;;6203891;28;20145;-70
2021/01/10 15:43:18;;;;;;;9.15;5.65;;;;;;;;;;6199315;28;20050;-69
2021/01/10 15:46:20;;;;;;;10.88;6.65;;;;;;;;;;6201888;28;22014;-70
2021/01/10 15:49:21;;;;;;;8.98;5.40;;;;;;;;;;6205932;28;20081;-70
2021/01/10 15:52:23;;;;;;;7.22;4.65;;;;;;;;;;6202243;28;20056;-69
2021/01/10 15:55:24;;;;;;;7.80;4.68;;;;;;;;;;6211666;28;20046;-70
2021/01/10 15:58:25;;;;;;;8.75;5.13;;;;;;;;;;6212105;28;20069;-69
2021/01/10 16:01:30;;;;;;;10.30;6.63;;;;;;;;;;6208586;28;20045;-69
2021/01/10 16:04:31;;;;;;;9.43;5.85;;;;;;;;;;6206224;28;20137;-69
2021/01/10 16:07:34;;;;;;;7.55;5.20;;;;;;;;;;6202487;28;20043;-69
2021/01/10 16:10:35;;;;;;;8.55;5.40;;;;;;;;;;6200971;28;20067;-70
2021/01/10 16:13:36;;;;;;;10.63;6.10;;;;;;;;;;6203644;28;20045;-70
2021/01/10 16:16:37;;;;;;;9.27;6.05;;;;;;;;;;6204098;28;20039;-69
2021/01/10 16:19:38;;;;;;;11.43;6.60;;;;;;;;;;6202870;28;20469;-70
2021/01/10 16:22:41;;;;;;;8.88;6.10;;;;;;;;;;6203999;28;20102;-70
2021/01/10 16:25:42;;;;;;;8.45;5.88;;;;;;;;;;6207362;28;20054;-69
2021/01/10 16:28:43;;;;;;;8.90;5.72;;;;;;;;;;6206784;28;20050;-68
2021/01/10 16:31:45;;;;;;;12.88;7.35;;;;;;;;;;6205724;28;20132;-67
2021/01/10 16:34:48;;;;;;;9.82;6.40;;;;;;;;;;6203189;28;20073;-69
2021/01/10 16:37:50;;;;;;;11.07;6.22;;;;;;;;;;6201162;28;20081;-69
2021/01/10 16:40:53;;;;;;;8.15;5.90;;;;;;;;;;6208592;28;20481;-69
2021/01/10 16:43:54;;;;;;;7.78;5.40;;;;;;;;;;6201838;28;20042;-67
2021/01/10 16:46:55;;;;;;;15.23;7.13;;;;;;;;;;6201620;28;20054;-69
2021/01/10 16:49:56;;;;;;;10.65;6.90;;;;;;;;;;6200277;28;20046;-73
2021/01/10 16:52:58;;;;;;;10.07;6.57;;;;;;;;;;6206507;28;20064;-70
2021/01/10 16:55:59;;;;;;;10.70;6.38;;;;;;;;;;6206667;28;20058;-69
2021/01/10 16:59:00;;;;;;;8.77;6.10;;;;;;;;;;6203492;28;20720;-70
2021/01/10 17:02:01;;;;;;;8.95;6.57;;;;;;;;;;6203350;28;20172;-71
2021/01/10 17:05:02;;;;;;;11.65;6.57;;;;;;;;;;6208566;28;20058;-70
2021/01/10 17:08:09;;;;;;;9.75;5.88;;;;;;;;;;6207310;28;20104;-69
2021/01/10 17:11:10;;;;;;;9.18;6.15;;;;;;;;;;6202375;28;20092;-69
2021/01/10 17:14:12;;;;;;;7.13;4.50;;;;;;;;;;6201948;28;20217;-68
2021/01/10 17:17:13;;;;;;;9.40;5.50;;;;;;;;;;6205262;28;20050;-70
2021/01/10 17:20:14;;;;;;;8.73;5.25;;;;;;;;;;6203726;28;20082;-69
2021/01/10 17:23:16;;;;;;;8.25;5.53;;;;;;;;;;6203423;28;20064;-68
2021/01/10 17:26:17;;;;;;;8.55;5.70;;;;;;;;;;6203312;28;20483;-70
2021/01/10 17:29:18;;;;;;;8.20;4.95;;;;;;;;;;6207609;28;20132;-68
2021/01/10 17:32:19;;;;;;;9.07;5.25;;;;;;;;;;6207064;28;20054;-68
2021/01/10 17:35:20;;;;;;;10.63;5.82;;;;;;;;;;6205274;28;20099;-69
2021/01/10 17:38:22;;;;;;;9.85;5.68;;;;;;;;;;6206008;28;20041;-68
2021/01/10 17:41:23;;;;;;;9.50;5.97;;;;;;;;;;6198082;28;20072;-70
2021/01/10 17:44:25;;;;;;;10.27;6.32;;;;;;;;;;6205499;28;20049;-68
2021/01/10 17:47:31;;;;;;;10.90;6.53;;;;;;;;;;6207968;28;20076;-68
2021/01/10 17:50:32;;;;;;;10.20;6.57;;;;;;;;;;6202757;28;20054;-68
2021/01/10 17:53:34;;;;;;;9.10;5.68;;;;;;;;;;6203779;28;20057;-69
2021/01/10 17:56:35;;;;;;;10.32;5.68;;;;;;;;;;6202843;28;20053;-70
2021/01/10 17:59:36;;;;;;;9.85;6.20;;;;;;;;;;6199090;28;20068;-70